sensor_id;sensor_type;location;lat;lon;timestamp;temperature;humidity
11908;DHT22;6014;47.690;9.130;2023-04-02T00:02:28;7.60;99.90
11908;DHT22;6014;47.690;9.130;2023-04-02T00:05:29;7.60;99.90
11908;DHT22;6014;47.690;9.130;2023-04-02T00:08:02;7.50;99.90
11908;DHT22;6014;47.690;9.130;2023-04-02T00:10:37;7.60;99.90
11908;DHT22;6014;47.690;9.130;2023-04-02T00:13:23;7.60;99.90
11908;DHT22;6014;47.690;9.130;2023-04-02T00:15:55;7.70;99.90
11908;DHT22;6014;47.690;9.130;2023-04-02T00:18:25;7.70;99.90
11908;DHT22;6014;47.690;9.130;2023-04-02T00:21:04;7.70;99.90
11908;DHT22;6014;47.690;9.130;2023-04-02T00:23:40;7.80;99.90
11908;DHT22;6014;47.690;9.130;2023-04-02T00:26:24;7.90;99.90
11908;DHT22;6014;47.690;9.130;2023-04-02T00:28:57;7.90;99.90
11908;DHT22;6014;47.690;9.130;2023-04-02T00:31:26;7.90;99.90
11908;DHT22;6014;47.690;9.130;2023-04-02T00:33:55;7.90;99.90
11908;DHT22;6014;47.690;9.130;2023-04-02T00:36:25;7.90;99.90
11908;DHT22;6014;47.690;9.130;2023-04-02T00:39:16;7.90;99.90
11908;DHT22;6014;47.690;9.130;2023-04-02T00:41:45;7.90;99.90
11908;DHT22;6014;47.690;9.130;2023-04-02T00:44:16;7.80;99.90
11908;DHT22;6014;47.690;9.130;2023-04-02T00:46:50;7.80;99.90
11908;DHT22;6014;47.690;9.130;2023-04-02T00:49:30;7.80;99.90
11908;DHT22;6014;47.690;9.130;2023-04-02T00:52:05;7.70;99.90
11908;DHT22;6014;47.690;9.130;2023-04-02T00:54:39;7.70;99.90
11908;DHT22;6014;47.690;9.130;2023-04-02T00:57:14;7.70;99.90
11908;DHT22;6014;47.690;9.130;2023-04-02T00:59:54;7.60;99.90
11908;DHT22;6014;47.690;9.130;2023-04-02T01:02:26;7.70;99.90
11908;DHT22;6014;47.690;9.130;2023-04-02T01:04:57;7.60;99.90
11908;DHT22;6014;47.690;9.130;2023-04-02T01:07:52;7.50;99.90
11908;DHT22;6014;47.690;9.130;2023-04-02T01:10:38;7.40;99.90
11908;DHT22;6014;47.690;9.130;2023-04-02T01:13:19;7.40;99.90
11908;DHT22;6014;47.690;9.130;2023-04-02T01:15:52;7.30;99.90
11908;DHT22;6014;47.690;9.130;2023-04-02T01:18:32;7.30;99.90
11908;DHT22;6014;47.690;9.130;2023-04-02T01:21:21;7.20;99.90
11908;DHT22;6014;47.690;9.130;2023-04-02T01:24:02;7.20;99.90
11908;DHT22;6014;47.690;9.130;2023-04-02T01:26:39;7.20;99.90
11908;DHT22;6014;47.690;9.130;2023-04-02T01:29:16;7.20;99.90
11908;DHT22;6014;47.690;9.130;2023-04-02T01:31:46;7.30;99.90
11908;DHT22;6014;47.690;9.130;2023-04-02T01:34:17;7.30;99.90
11908;DHT22;6014;47.690;9.130;2023-04-02T01:36:57;7.40;99.90
11908;DHT22;6014;47.690;9.130;2023-04-02T01:39:46;7.50;99.90
11908;DHT22;6014;47.690;9.130;2023-04-02T01:42:20;7.50;99.90
11908;DHT22;6014;47.690;9.130;2023-04-02T01:44:58;7.60;99.90
11908;DHT22;6014;47.690;9.130;2023-04-02T01:47:28;7.60;99.90
11908;DHT22;6014;47.690;9.130;2023-04-02T01:49:57;7.60;99.90
11908;DHT22;6014;47.690;9.130;2023-04-02T01:52:35;7.60;99.90
11908;DHT22;6014;47.690;9.130;2023-04-02T01:55:11;7.60;99.90
11908;DHT22;6014;47.690;9.130;2023-04-02T01:57:43;7.50;99.90
11908;DHT22;6014;47.690;9.130;2023-04-02T02:00:17;7.50;99.90
11908;DHT22;6014;47.690;9.130;2023-04-02T02:02:49;7.30;99.90
11908;DHT22;6014;47.690;9.130;2023-04-02T02:05:26;7.20;99.90
11908;DHT22;6014;47.690;9.130;2023-04-02T02:07:57;7.10;99.90
11908;DHT22;6014;47.690;9.130;2023-04-02T02:10:34;7.00;99.90
11908;DHT22;6014;47.690;9.130;2023-04-02T02:13:02;6.90;99.90
11908;DHT22;6014;47.690;9.130;2023-04-02T02:15:35;6.80;99.90
11908;DHT22;6014;47.690;9.130;2023-04-02T02:18:05;6.70;99.90
11908;DHT22;6014;47.690;9.130;2023-04-02T02:20:34;6.70;99.90
11908;DHT22;6014;47.690;9.130;2023-04-02T02:23:03;6.70;99.90
11908;DHT22;6014;47.690;9.130;2023-04-02T02:25:33;6.70;99.90
11908;DHT22;6014;47.690;9.130;2023-04-02T02:28:05;6.70;99.90
11908;DHT22;6014;47.690;9.130;2023-04-02T02:30:45;6.60;99.90
11908;DHT22;6014;47.690;9.130;2023-04-02T02:33:16;6.80;99.90
11908;DHT22;6014;47.690;9.130;2023-04-02T02:36:00;6.80;99.90
11908;DHT22;6014;47.690;9.130;2023-04-02T02:38:39;6.90;99.90
11908;DHT22;6014;47.690;9.130;2023-04-02T02:41:15;7.00;99.90
11908;DHT22;6014;47.690;9.130;2023-04-02T02:43:50;7.20;99.90
11908;DHT22;6014;47.690;9.130;2023-04-02T02:46:22;7.30;99.90
11908;DHT22;6014;47.690;9.130;2023-04-02T02:48:54;7.40;99.90
11908;DHT22;6014;47.690;9.130;2023-04-02T02:51:38;7.40;99.90
11908;DHT22;6014;47.690;9.130;2023-04-02T02:54:06;7.40;99.90
11908;DHT22;6014;47.690;9.130;2023-04-02T02:56:39;7.40;99.90
11908;DHT22;6014;47.690;9.130;2023-04-02T02:59:09;7.50;99.90
11908;DHT22;6014;47.690;9.130;2023-04-02T03:01:41;7.50;99.90
11908;DHT22;6014;47.690;9.130;2023-04-02T03:04:10;7.60;99.90
11908;DHT22;6014;47.690;9.130;2023-04-02T03:06:40;7.50;99.90
11908;DHT22;6014;47.690;9.130;2023-04-02T03:09:30;7.60;99.90
11908;DHT22;6014;47.690;9.130;2023-04-02T03:12:27;7.60;99.90
11908;DHT22;6014;47.690;9.130;2023-04-02T03:15:12;7.60;99.90
11908;DHT22;6014;47.690;9.130;2023-04-02T03:18:01;7.70;99.90
11908;DHT22;6014;47.690;9.130;2023-04-02T03:20:33;7.60;99.90
11908;DHT22;6014;47.690;9.130;2023-04-02T03:23:07;7.60;99.90
11908;DHT22;6014;47.690;9.130;2023-04-02T03:25:42;7.60;99.90
11908;DHT22;6014;47.690;9.130;2023-04-02T03:28:26;7.60;99.90
11908;DHT22;6014;47.690;9.130;2023-04-02T03:31:03;7.60;99.90
11908;DHT22;6014;47.690;9.130;2023-04-02T03:33:36;7.60;99.90
11908;DHT22;6014;47.690;9.130;2023-04-02T03:36:14;7.60;99.90
11908;DHT22;6014;47.690;9.130;2023-04-02T03:38:48;7.50;99.90
11908;DHT22;6014;47.690;9.130;2023-04-02T03:41:21;7.50;99.90
11908;DHT22;6014;47.690;9.130;2023-04-02T03:43:51;7.50;99.90
11908;DHT22;6014;47.690;9.130;2023-04-02T03:46:24;7.60;99.90
11908;DHT22;6014;47.690;9.130;2023-04-02T03:48:58;7.60;99.90
11908;DHT22;6014;47.690;9.130;2023-04-02T03:51:31;7.60;99.90
11908;DHT22;6014;47.690;9.130;2023-04-02T03:54:01;7.60;99.90
11908;DHT22;6014;47.690;9.130;2023-04-02T03:56:38;7.60;99.90
11908;DHT22;6014;47.690;9.130;2023-04-02T03:59:14;7.60;99.90
11908;DHT22;6014;47.690;9.130;2023-04-02T04:01:50;7.60;99.90
11908;DHT22;6014;47.690;9.130;2023-04-02T04:04:30;7.60;99.90
11908;DHT22;6014;47.690;9.130;2023-04-02T04:07:17;7.60;99.90
11908;DHT22;6014;47.690;9.130;2023-04-02T04:09:49;7.60;99.90
11908;DHT22;6014;47.690;9.130;2023-04-02T04:12:32;7.60;99.90
11908;DHT22;6014;47.690;9.130;2023-04-02T04:15:05;7.60;99.90
11908;DHT22;6014;47.690;9.130;2023-04-02T04:17:44;7.60;99.90
11908;DHT22;6014;47.690;9.130;2023-04-02T04:20:20;7.60;99.90
11908;DHT22;6014;47.690;9.130;2023-04-02T04:23:09;7.60;99.90
11908;DHT22;6014;47.690;9.130;2023-04-02T04:25:38;7.60;99.90
11908;DHT22;6014;47.690;9.130;2023-04-02T04:28:14;7.60;99.90
11908;DHT22;6014;47.690;9.130;2023-04-02T04:30:51;7.60;99.90
11908;DHT22;6014;47.690;9.130;2023-04-02T04:33:23;7.50;99.90
11908;DHT22;6014;47.690;9.130;2023-04-02T04:35:56;7.60;99.90
11908;DHT22;6014;47.690;9.130;2023-04-02T04:38:30;7.70;99.90
11908;DHT22;6014;47.690;9.130;2023-04-02T04:41:03;7.70;99.90
11908;DHT22;6014;47.690;9.130;2023-04-02T04:43:45;7.60;99.90
11908;DHT22;6014;47.690;9.130;2023-04-02T04:46:21;7.70;99.90
11908;DHT22;6014;47.690;9.130;2023-04-02T04:49:01;7.60;99.90
11908;DHT22;6014;47.690;9.130;2023-04-02T04:51:36;7.50;99.90
11908;DHT22;6014;47.690;9.130;2023-04-02T04:54:10;7.60;99.90
11908;DHT22;6014;47.690;9.130;2023-04-02T04:56:44;7.50;99.90
11908;DHT22;6014;47.690;9.130;2023-04-02T04:59:17;7.50;99.90
11908;DHT22;6014;47.690;9.130;2023-04-02T05:01:50;7.50;99.90
11908;DHT22;6014;47.690;9.130;2023-04-02T05:04:23;7.60;99.90
11908;DHT22;6014;47.690;9.130;2023-04-02T05:06:56;7.60;99.90
11908;DHT22;6014;47.690;9.130;2023-04-02T05:09:30;7.60;99.90
11908;DHT22;6014;47.690;9.130;2023-04-02T05:12:04;7.60;99.90
11908;DHT22;6014;47.690;9.130;2023-04-02T05:14:47;7.70;99.90
11908;DHT22;6014;47.690;9.130;2023-04-02T05:17:20;7.70;99.90
11908;DHT22;6014;47.690;9.130;2023-04-02T05:19:54;7.80;99.90
11908;DHT22;6014;47.690;9.130;2023-04-02T05:22:32;7.70;99.90
11908;DHT22;6014;47.690;9.130;2023-04-02T05:25:13;7.60;99.90
11908;DHT22;6014;47.690;9.130;2023-04-02T05:27:46;7.70;99.90
11908;DHT22;6014;47.690;9.130;2023-04-02T05:30:37;7.70;99.90
11908;DHT22;6014;47.690;9.130;2023-04-02T05:33:17;7.70;99.90
11908;DHT22;6014;47.690;9.130;2023-04-02T05:35:50;7.70;99.90
11908;DHT22;6014;47.690;9.130;2023-04-02T05:38:24;7.70;99.90
11908;DHT22;6014;47.690;9.130;2023-04-02T05:41:00;7.80;99.90
11908;DHT22;6014;47.690;9.130;2023-04-02T05:43:31;7.70;99.90
11908;DHT22;6014;47.690;9.130;2023-04-02T05:46:02;7.80;99.90
11908;DHT22;6014;47.690;9.130;2023-04-02T05:48:38;7.80;99.90
11908;DHT22;6014;47.690;9.130;2023-04-02T05:51:10;7.90;99.90
11908;DHT22;6014;47.690;9.130;2023-04-02T05:53:49;7.80;99.90
11908;DHT22;6014;47.690;9.130;2023-04-02T05:56:22;7.90;99.90
11908;DHT22;6014;47.690;9.130;2023-04-02T05:58:54;7.90;99.90
11908;DHT22;6014;47.690;9.130;2023-04-02T06:01:38;7.90;99.90
11908;DHT22;6014;47.690;9.130;2023-04-02T06:04:14;7.90;99.90
11908;DHT22;6014;47.690;9.130;2023-04-02T06:06:49;7.90;99.90
11908;DHT22;6014;47.690;9.130;2023-04-02T06:09:27;8.00;99.90
11908;DHT22;6014;47.690;9.130;2023-04-02T06:12:03;8.10;99.90
11908;DHT22;6014;47.690;9.130;2023-04-02T06:14:39;8.00;99.90
11908;DHT22;6014;47.690;9.130;2023-04-02T06:17:09;8.00;99.90
11908;DHT22;6014;47.690;9.130;2023-04-02T06:19:38;8.20;99.90
11908;DHT22;6014;47.690;9.130;2023-04-02T06:22:13;8.20;99.90
11908;DHT22;6014;47.690;9.130;2023-04-02T06:24:46;8.20;99.90
11908;DHT22;6014;47.690;9.130;2023-04-02T06:27:17;8.30;99.90
11908;DHT22;6014;47.690;9.130;2023-04-02T06:29:49;8.40;99.90
11908;DHT22;6014;47.690;9.130;2023-04-02T06:32:23;8.50;99.90
11908;DHT22;6014;47.690;9.130;2023-04-02T06:34:52;8.50;99.90
11908;DHT22;6014;47.690;9.130;2023-04-02T06:37:25;8.50;99.90
11908;DHT22;6014;47.690;9.130;2023-04-02T06:39:56;8.60;99.90
11908;DHT22;6014;47.690;9.130;2023-04-02T06:42:33;8.70;99.90
11908;DHT22;6014;47.690;9.130;2023-04-02T06:45:04;8.70;99.90
11908;DHT22;6014;47.690;9.130;2023-04-02T06:47:34;8.80;99.90
11908;DHT22;6014;47.690;9.130;2023-04-02T06:50:10;8.70;99.90
11908;DHT22;6014;47.690;9.130;2023-04-02T06:52:45;8.80;99.90
11908;DHT22;6014;47.690;9.130;2023-04-02T06:55:28;8.80;99.90
11908;DHT22;6014;47.690;9.130;2023-04-02T06:57:57;8.90;99.90
11908;DHT22;6014;47.690;9.130;2023-04-02T07:00:32;9.00;99.90
11908;DHT22;6014;47.690;9.130;2023-04-02T07:03:04;9.00;99.90
11908;DHT22;6014;47.690;9.130;2023-04-02T07:05:32;9.10;99.90
11908;DHT22;6014;47.690;9.130;2023-04-02T07:08:01;9.20;99.90
11908;DHT22;6014;47.690;9.130;2023-04-02T07:10:30;9.30;99.90
11908;DHT22;6014;47.690;9.130;2023-04-02T07:13:01;9.30;99.90
11908;DHT22;6014;47.690;9.130;2023-04-02T07:15:39;9.30;99.90
11908;DHT22;6014;47.690;9.130;2023-04-02T07:18:11;9.30;99.90
11908;DHT22;6014;47.690;9.130;2023-04-02T07:20:44;9.50;99.90
11908;DHT22;6014;47.690;9.130;2023-04-02T07:23:12;9.80;99.90
11908;DHT22;6014;47.690;9.130;2023-04-02T07:25:44;9.90;99.90
11908;DHT22;6014;47.690;9.130;2023-04-02T07:28:14;10.00;99.90
11908;DHT22;6014;47.690;9.130;2023-04-02T07:30:43;10.10;99.90
11908;DHT22;6014;47.690;9.130;2023-04-02T07:33:12;10.20;99.90
11908;DHT22;6014;47.690;9.130;2023-04-02T07:35:41;10.90;99.90
11908;DHT22;6014;47.690;9.130;2023-04-02T07:38:09;11.30;99.90
11908;DHT22;6014;47.690;9.130;2023-04-02T07:40:38;11.40;99.90
11908;DHT22;6014;47.690;9.130;2023-04-02T07:43:07;11.20;99.90
11908;DHT22;6014;47.690;9.130;2023-04-02T07:45:49;10.90;99.90
11908;DHT22;6014;47.690;9.130;2023-04-02T07:48:19;10.70;99.90
11908;DHT22;6014;47.690;9.130;2023-04-02T07:50:47;10.70;99.90
11908;DHT22;6014;47.690;9.130;2023-04-02T07:53:26;10.70;99.90
11908;DHT22;6014;47.690;9.130;2023-04-02T07:55:56;10.60;99.90
11908;DHT22;6014;47.690;9.130;2023-04-02T07:58:27;10.60;99.90
11908;DHT22;6014;47.690;9.130;2023-04-02T08:00:55;10.50;99.90
11908;DHT22;6014;47.690;9.130;2023-04-02T08:03:23;10.40;99.90
11908;DHT22;6014;47.690;9.130;2023-04-02T08:05:52;10.40;99.90
11908;DHT22;6014;47.690;9.130;2023-04-02T08:08:22;10.50;99.90
11908;DHT22;6014;47.690;9.130;2023-04-02T08:10:52;10.50;99.90
11908;DHT22;6014;47.690;9.130;2023-04-02T08:13:23;10.50;99.90
11908;DHT22;6014;47.690;9.130;2023-04-02T08:15:57;10.50;99.90
11908;DHT22;6014;47.690;9.130;2023-04-02T08:18:26;10.80;99.90
11908;DHT22;6014;47.690;9.130;2023-04-02T08:20:55;11.10;99.90
11908;DHT22;6014;47.690;9.130;2023-04-02T08:23:23;11.80;99.90
11908;DHT22;6014;47.690;9.130;2023-04-02T08:25:53;11.60;99.90
11908;DHT22;6014;47.690;9.130;2023-04-02T08:28:21;11.60;99.90
11908;DHT22;6014;47.690;9.130;2023-04-02T08:30:49;12.00;99.90
11908;DHT22;6014;47.690;9.130;2023-04-02T08:33:19;12.70;99.90
11908;DHT22;6014;47.690;9.130;2023-04-02T08:35:53;13.20;96.00
11908;DHT22;6014;47.690;9.130;2023-04-02T08:38:22;12.70;96.80
11908;DHT22;6014;47.690;9.130;2023-04-02T08:40:51;12.40;98.40
11908;DHT22;6014;47.690;9.130;2023-04-02T08:43:48;12.50;97.60
11908;DHT22;6014;47.690;9.130;2023-04-02T08:46:29;12.30;97.80
11908;DHT22;6014;47.690;9.130;2023-04-02T08:49:07;12.30;97.70
11908;DHT22;6014;47.690;9.130;2023-04-02T08:51:39;11.90;99.60
11908;DHT22;6014;47.690;9.130;2023-04-02T08:54:14;11.90;99.90
11908;DHT22;6014;47.690;9.130;2023-04-02T08:56:51;12.50;99.00
11908;DHT22;6014;47.690;9.130;2023-04-02T08:59:29;12.80;95.10
11908;DHT22;6014;47.690;9.130;2023-04-02T09:02:04;12.70;96.00
11908;DHT22;6014;47.690;9.130;2023-04-02T09:04:36;12.60;96.40
11908;DHT22;6014;47.690;9.130;2023-04-02T09:07:10;12.90;93.90
11908;DHT22;6014;47.690;9.130;2023-04-02T09:09:39;13.20;90.20
11908;DHT22;6014;47.690;9.130;2023-04-02T09:12:16;13.70;85.30
11908;DHT22;6014;47.690;9.130;2023-04-02T09:14:50;13.80;82.90
11908;DHT22;6014;47.690;9.130;2023-04-02T09:17:24;13.50;81.50
11908;DHT22;6014;47.690;9.130;2023-04-02T09:19:57;12.60;90.30
11908;DHT22;6014;47.690;9.130;2023-04-02T09:22:30;12.20;95.70
11908;DHT22;6014;47.690;9.130;2023-04-02T09:25:04;11.90;97.10
11908;DHT22;6014;47.690;9.130;2023-04-02T09:27:34;12.60;96.70
11908;DHT22;6014;47.690;9.130;2023-04-02T09:30:17;12.90;93.80
11908;DHT22;6014;47.690;9.130;2023-04-02T09:32:51;12.50;94.40
11908;DHT22;6014;47.690;9.130;2023-04-02T09:35:25;12.20;95.20
11908;DHT22;6014;47.690;9.130;2023-04-02T09:38:10;12.00;96.80
11908;DHT22;6014;47.690;9.130;2023-04-02T09:40:44;11.50;99.00
11908;DHT22;6014;47.690;9.130;2023-04-02T09:43:18;11.50;99.90
11908;DHT22;6014;47.690;9.130;2023-04-02T09:45:55;11.50;99.90
11908;DHT22;6014;47.690;9.130;2023-04-02T09:48:26;11.40;99.90
11908;DHT22;6014;47.690;9.130;2023-04-02T09:51:12;11.30;99.90
11908;DHT22;6014;47.690;9.130;2023-04-02T09:53:42;11.50;99.90
11908;DHT22;6014;47.690;9.130;2023-04-02T09:56:20;11.50;99.90
11908;DHT22;6014;47.690;9.130;2023-04-02T09:59:01;11.70;99.70
11908;DHT22;6014;47.690;9.130;2023-04-02T10:01:33;11.80;99.20
11908;DHT22;6014;47.690;9.130;2023-04-02T10:04:15;11.90;97.40
11908;DHT22;6014;47.690;9.130;2023-04-02T10:06:55;11.90;96.70
11908;DHT22;6014;47.690;9.130;2023-04-02T10:09:28;11.90;95.50
11908;DHT22;6014;47.690;9.130;2023-04-02T10:12:00;11.70;97.00
11908;DHT22;6014;47.690;9.130;2023-04-02T10:14:37;12.00;97.40
11908;DHT22;6014;47.690;9.130;2023-04-02T10:17:13;12.00;96.30
11908;DHT22;6014;47.690;9.130;2023-04-02T10:19:46;12.10;97.80
11908;DHT22;6014;47.690;9.130;2023-04-02T10:22:18;12.10;95.80
11908;DHT22;6014;47.690;9.130;2023-04-02T10:24:47;12.20;95.00
11908;DHT22;6014;47.690;9.130;2023-04-02T10:27:23;12.00;96.10
11908;DHT22;6014;47.690;9.130;2023-04-02T10:30:13;12.20;96.90
11908;DHT22;6014;47.690;9.130;2023-04-02T10:32:47;12.30;95.30
11908;DHT22;6014;47.690;9.130;2023-04-02T10:35:28;12.40;94.50
11908;DHT22;6014;47.690;9.130;2023-04-02T10:41:25;12.50;93.60
11908;DHT22;6014;47.690;9.130;2023-04-02T10:44:07;12.40;92.80
11908;DHT22;6014;47.690;9.130;2023-04-02T10:46:53;12.50;93.40
11908;DHT22;6014;47.690;9.130;2023-04-02T10:49:30;12.50;93.00
11908;DHT22;6014;47.690;9.130;2023-04-02T10:52:05;12.50;92.50
11908;DHT22;6014;47.690;9.130;2023-04-02T10:54:40;12.40;92.60
11908;DHT22;6014;47.690;9.130;2023-04-02T10:57:23;12.60;93.10
11908;DHT22;6014;47.690;9.130;2023-04-02T10:59:55;12.70;93.10
11908;DHT22;6014;47.690;9.130;2023-04-02T11:02:32;12.50;94.00
11908;DHT22;6014;47.690;9.130;2023-04-02T11:05:06;12.50;95.50
11908;DHT22;6014;47.690;9.130;2023-04-02T11:07:48;12.60;96.20
11908;DHT22;6014;47.690;9.130;2023-04-02T11:10:19;12.50;96.10
11908;DHT22;6014;47.690;9.130;2023-04-02T11:12:54;12.70;94.90
11908;DHT22;6014;47.690;9.130;2023-04-02T11:15:23;12.80;97.40
11908;DHT22;6014;47.690;9.130;2023-04-02T11:17:51;13.30;91.60
11908;DHT22;6014;47.690;9.130;2023-04-02T11:23:33;13.50;89.80
11908;DHT22;6014;47.690;9.130;2023-04-02T11:29:25;14.20;80.30
11908;DHT22;6014;47.690;9.130;2023-04-02T11:37:56;15.30;70.00
11908;DHT22;6014;47.690;9.130;2023-04-02T11:40:43;15.40;69.70
11908;DHT22;6014;47.690;9.130;2023-04-02T11:43:50;15.10;66.40
11908;DHT22;6014;47.690;9.130;2023-04-02T11:46:41;15.00;67.60
11908;DHT22;6014;47.690;9.130;2023-04-02T11:49:37;14.90;70.10
11908;DHT22;6014;47.690;9.130;2023-04-02T11:52:21;15.40;65.80
11908;DHT22;6014;47.690;9.130;2023-04-02T11:55:02;15.70;64.10
11908;DHT22;6014;47.690;9.130;2023-04-02T11:57:58;15.50;61.40
11908;DHT22;6014;47.690;9.130;2023-04-02T12:00:48;15.30;60.90
11908;DHT22;6014;47.690;9.130;2023-04-02T12:03:41;15.10;64.70
11908;DHT22;6014;47.690;9.130;2023-04-02T12:06:21;15.80;59.90
11908;DHT22;6014;47.690;9.130;2023-04-02T12:08:58;15.20;61.10
11908;DHT22;6014;47.690;9.130;2023-04-02T12:11:33;15.40;60.90
11908;DHT22;6014;47.690;9.130;2023-04-02T12:14:27;15.70;62.50
11908;DHT22;6014;47.690;9.130;2023-04-02T12:16:57;15.50;59.70
11908;DHT22;6014;47.690;9.130;2023-04-02T12:19:26;15.80;64.00
11908;DHT22;6014;47.690;9.130;2023-04-02T12:21:57;15.10;59.30
11908;DHT22;6014;47.690;9.130;2023-04-02T12:24:27;15.10;61.20
11908;DHT22;6014;47.690;9.130;2023-04-02T12:27:14;15.40;61.40
11908;DHT22;6014;47.690;9.130;2023-04-02T12:29:49;15.60;59.20
11908;DHT22;6014;47.690;9.130;2023-04-02T12:32:28;16.30;56.60
11908;DHT22;6014;47.690;9.130;2023-04-02T12:34:58;16.00;57.40
11908;DHT22;6014;47.690;9.130;2023-04-02T12:37:36;16.30;55.50
11908;DHT22;6014;47.690;9.130;2023-04-02T12:40:16;16.40;54.20
11908;DHT22;6014;47.690;9.130;2023-04-02T12:42:44;16.30;55.80
11908;DHT22;6014;47.690;9.130;2023-04-02T12:45:21;16.70;54.50
11908;DHT22;6014;47.690;9.130;2023-04-02T12:48:01;16.40;52.40
11908;DHT22;6014;47.690;9.130;2023-04-02T12:50:32;16.60;52.60
11908;DHT22;6014;47.690;9.130;2023-04-02T12:53:02;16.70;51.20
11908;DHT22;6014;47.690;9.130;2023-04-02T12:55:38;16.70;50.20
11908;DHT22;6014;47.690;9.130;2023-04-02T12:58:24;16.90;50.10
11908;DHT22;6014;47.690;9.130;2023-04-02T13:01:09;16.50;48.90
11908;DHT22;6014;47.690;9.130;2023-04-02T13:03:59;16.40;49.40
11908;DHT22;6014;47.690;9.130;2023-04-02T13:06:29;17.10;50.00
11908;DHT22;6014;47.690;9.130;2023-04-02T13:09:25;17.40;47.80
11908;DHT22;6014;47.690;9.130;2023-04-02T13:12:18;16.90;45.60
11908;DHT22;6014;47.690;9.130;2023-04-02T13:14:51;17.00;48.00
11908;DHT22;6014;47.690;9.130;2023-04-02T13:17:40;16.80;43.90
11908;DHT22;6014;47.690;9.130;2023-04-02T13:20:30;16.70;44.90
11908;DHT22;6014;47.690;9.130;2023-04-02T13:23:02;16.70;44.70
11908;DHT22;6014;47.690;9.130;2023-04-02T13:25:35;16.60;44.90
11908;DHT22;6014;47.690;9.130;2023-04-02T13:28:11;17.00;44.90
11908;DHT22;6014;47.690;9.130;2023-04-02T13:30:39;17.00;43.80
11908;DHT22;6014;47.690;9.130;2023-04-02T13:33:10;17.10;45.80
11908;DHT22;6014;47.690;9.130;2023-04-02T13:35:49;16.80;44.20
11908;DHT22;6014;47.690;9.130;2023-04-02T13:38:19;16.60;44.70
11908;DHT22;6014;47.690;9.130;2023-04-02T13:40:59;16.70;46.20
11908;DHT22;6014;47.690;9.130;2023-04-02T13:43:27;16.60;44.50
11908;DHT22;6014;47.690;9.130;2023-04-02T13:46:04;16.70;43.20
11908;DHT22;6014;47.690;9.130;2023-04-02T13:48:34;16.60;43.10
11908;DHT22;6014;47.690;9.130;2023-04-02T13:51:05;16.60;43.70
11908;DHT22;6014;47.690;9.130;2023-04-02T13:53:35;16.50;43.10
11908;DHT22;6014;47.690;9.130;2023-04-02T13:56:12;16.60;43.80
11908;DHT22;6014;47.690;9.130;2023-04-02T13:58:46;16.70;41.70
11908;DHT22;6014;47.690;9.130;2023-04-02T14:01:24;16.80;42.00
11908;DHT22;6014;47.690;9.130;2023-04-02T14:03:55;16.30;42.60
11908;DHT22;6014;47.690;9.130;2023-04-02T14:06:59;16.30;44.30
11908;DHT22;6014;47.690;9.130;2023-04-02T14:10:00;16.70;43.70
11908;DHT22;6014;47.690;9.130;2023-04-02T14:12:34;16.60;41.20
11908;DHT22;6014;47.690;9.130;2023-04-02T14:15:19;16.60;40.50
11908;DHT22;6014;47.690;9.130;2023-04-02T14:18:15;16.20;41.10
11908;DHT22;6014;47.690;9.130;2023-04-02T14:21:02;16.40;41.40
11908;DHT22;6014;47.690;9.130;2023-04-02T14:23:54;16.40;41.40
11908;DHT22;6014;47.690;9.130;2023-04-02T14:26:36;16.20;39.90
11908;DHT22;6014;47.690;9.130;2023-04-02T14:29:17;16.10;41.20
11908;DHT22;6014;47.690;9.130;2023-04-02T14:31:52;16.30;41.40
11908;DHT22;6014;47.690;9.130;2023-04-02T14:34:33;16.70;39.50
11908;DHT22;6014;47.690;9.130;2023-04-02T14:37:17;16.80;37.20
11908;DHT22;6014;47.690;9.130;2023-04-02T14:39:56;17.10;36.80
11908;DHT22;6014;47.690;9.130;2023-04-02T14:42:30;17.10;37.80
11908;DHT22;6014;47.690;9.130;2023-04-02T14:45:03;17.40;35.50
11908;DHT22;6014;47.690;9.130;2023-04-02T14:47:39;17.20;37.60
11908;DHT22;6014;47.690;9.130;2023-04-02T14:50:20;17.10;35.60
11908;DHT22;6014;47.690;9.130;2023-04-02T14:52:57;17.40;36.40
11908;DHT22;6014;47.690;9.130;2023-04-02T14:55:34;17.20;36.10
11908;DHT22;6014;47.690;9.130;2023-04-02T14:58:09;16.60;36.40
11908;DHT22;6014;47.690;9.130;2023-04-02T15:00:57;16.10;37.90
11908;DHT22;6014;47.690;9.130;2023-04-02T15:03:48;16.00;37.50
11908;DHT22;6014;47.690;9.130;2023-04-02T15:06:23;15.10;44.20
11908;DHT22;6014;47.690;9.130;2023-04-02T15:08:57;14.00;54.60
11908;DHT22;6014;47.690;9.130;2023-04-02T15:11:47;13.50;67.80
11908;DHT22;6014;47.690;9.130;2023-04-02T15:14:21;13.40;74.70
11908;DHT22;6014;47.690;9.130;2023-04-02T15:16:53;13.50;78.00
11908;DHT22;6014;47.690;9.130;2023-04-02T15:19:23;13.50;82.20
11908;DHT22;6014;47.690;9.130;2023-04-02T15:22:03;13.30;86.30
11908;DHT22;6014;47.690;9.130;2023-04-02T15:24:45;13.30;88.40
11908;DHT22;6014;47.690;9.130;2023-04-02T15:27:29;13.30;87.80
11908;DHT22;6014;47.690;9.130;2023-04-02T15:30:09;13.30;91.00
11908;DHT22;6014;47.690;9.130;2023-04-02T15:32:40;13.10;87.50
11908;DHT22;6014;47.690;9.130;2023-04-02T15:35:20;13.10;90.60
11908;DHT22;6014;47.690;9.130;2023-04-02T15:37:56;13.20;93.90
11908;DHT22;6014;47.690;9.130;2023-04-02T15:40:37;13.20;91.50
11908;DHT22;6014;47.690;9.130;2023-04-02T15:43:18;13.10;93.30
11908;DHT22;6014;47.690;9.130;2023-04-02T15:46:10;13.20;96.00
11908;DHT22;6014;47.690;9.130;2023-04-02T15:48:58;13.20;95.30
11908;DHT22;6014;47.690;9.130;2023-04-02T15:51:37;13.40;90.80
11908;DHT22;6014;47.690;9.130;2023-04-02T15:54:21;13.30;90.40
11908;DHT22;6014;47.690;9.130;2023-04-02T15:57:00;13.20;93.70
11908;DHT22;6014;47.690;9.130;2023-04-02T16:00:23;13.10;92.70
11908;DHT22;6014;47.690;9.130;2023-04-02T16:06:15;12.90;95.50
11908;DHT22;6014;47.690;9.130;2023-04-02T16:09:02;12.70;95.80
11908;DHT22;6014;47.690;9.130;2023-04-02T16:11:34;12.50;98.60
11908;DHT22;6014;47.690;9.130;2023-04-02T16:14:16;12.50;98.20
11908;DHT22;6014;47.690;9.130;2023-04-02T16:16:53;12.60;97.90
11908;DHT22;6014;47.690;9.130;2023-04-02T16:19:28;12.60;96.80
11908;DHT22;6014;47.690;9.130;2023-04-02T16:22:03;12.60;98.60
11908;DHT22;6014;47.690;9.130;2023-04-02T16:24:34;12.60;97.30
11908;DHT22;6014;47.690;9.130;2023-04-02T16:27:16;12.40;98.00
11908;DHT22;6014;47.690;9.130;2023-04-02T16:30:06;12.40;99.90
11908;DHT22;6014;47.690;9.130;2023-04-02T16:32:51;12.50;99.60
11908;DHT22;6014;47.690;9.130;2023-04-02T16:35:30;12.40;98.30
11908;DHT22;6014;47.690;9.130;2023-04-02T16:38:23;12.40;99.30
11908;DHT22;6014;47.690;9.130;2023-04-02T16:41:06;12.30;98.90
11908;DHT22;6014;47.690;9.130;2023-04-02T16:43:44;12.20;99.80
11908;DHT22;6014;47.690;9.130;2023-04-02T16:46:19;12.20;98.20
11908;DHT22;6014;47.690;9.130;2023-04-02T16:49:18;12.20;98.00
11908;DHT22;6014;47.690;9.130;2023-04-02T16:52:07;12.10;98.00
11908;DHT22;6014;47.690;9.130;2023-04-02T16:55:08;12.00;99.00
11908;DHT22;6014;47.690;9.130;2023-04-02T16:57:46;12.00;99.30
11908;DHT22;6014;47.690;9.130;2023-04-02T17:00:22;11.90;99.90
11908;DHT22;6014;47.690;9.130;2023-04-02T17:03:00;12.00;99.90
11908;DHT22;6014;47.690;9.130;2023-04-02T17:05:32;11.90;99.90
11908;DHT22;6014;47.690;9.130;2023-04-02T17:08:14;11.90;99.90
11908;DHT22;6014;47.690;9.130;2023-04-02T17:10:49;11.80;99.90
11908;DHT22;6014;47.690;9.130;2023-04-02T17:13:26;11.90;99.90